Dell, Arkansas
Current Conditions -  °F | °C
As of 10:53 AM on Friday 24 Oct 2014 (Local Time) from KHKA Reporting Station
Scattered Clouds Scattered Clouds  
Wind Chill: 65°   Ceiling: Unl
Heat Index: 65°   Visibility: 10mi
Dew Point: 48°   Wind: 3mph
Humidity: 54%   Direction: 300°WNW
Pressure: 30.16"   Gusts: NA
Location:  35.86°N, 90.04°W
Report Text: KHKA 241553Z AUTO 30003KT 10SM SCT049 18/09 A3016 RMK AO2 SLP211 T01830089
Loading
Personal Weather Stations






























Interactive Weather Map New forecast layout! Learn more

10-Day Weather Forecast

Advertisements
Track Severe Weather on mobile